createdAt,value
2023-04-27T00:00:34.201Z,14.60
2023-04-27T00:03:01.996Z,14.60
2023-04-27T00:05:28.693Z,14.50
2023-04-27T00:07:55.230Z,14.50
2023-04-27T00:10:21.801Z,14.50
2023-04-27T00:12:48.282Z,14.60
2023-04-27T00:15:14.738Z,14.50
2023-04-27T00:17:41.244Z,14.60
2023-04-27T00:20:07.736Z,14.50
2023-04-27T00:22:34.216Z,14.60
2023-04-27T00:25:00.694Z,14.50
2023-04-27T00:27:27.190Z,14.50
2023-04-27T00:29:53.663Z,14.60
2023-04-27T00:32:20.182Z,14.50
2023-04-27T00:34:46.692Z,14.40
2023-04-27T00:37:13.156Z,14.50
2023-04-27T00:39:43.830Z,14.40
2023-04-27T00:42:10.297Z,14.60
2023-04-27T00:44:38.057Z,14.50
2023-04-27T00:47:06.191Z,14.50
2023-04-27T00:49:32.667Z,14.40
2023-04-27T00:51:59.158Z,14.50
2023-04-27T00:54:25.650Z,14.40
2023-04-27T00:56:52.176Z,14.30
2023-04-27T00:59:18.632Z,14.30
2023-04-27T01:01:45.160Z,14.40
2023-04-27T01:04:11.852Z,14.40
2023-04-27T01:06:43.971Z,14.40
2023-04-27T01:09:10.433Z,14.40
2023-04-27T01:11:36.916Z,14.40
2023-04-27T01:14:03.405Z,14.40
2023-04-27T01:16:29.912Z,14.30
2023-04-27T01:18:56.437Z,14.30
2023-04-27T01:21:22.913Z,14.30
2023-04-27T01:23:49.396Z,14.30
2023-04-27T01:26:15.867Z,14.30
2023-04-27T01:28:42.347Z,14.30
2023-04-27T01:31:08.980Z,14.40
2023-04-27T01:33:35.502Z,14.40
2023-04-27T01:36:01.975Z,14.30
2023-04-27T01:38:28.482Z,14.40
2023-04-27T01:40:54.981Z,14.40
2023-04-27T01:43:21.493Z,14.40
2023-04-27T01:45:49.801Z,14.40
2023-04-27T01:48:16.322Z,14.40
2023-04-27T01:50:42.798Z,14.30
2023-04-27T01:53:09.311Z,14.30
2023-04-27T01:55:35.798Z,14.30
2023-04-27T01:58:07.819Z,14.30
2023-04-27T02:00:34.270Z,14.40
2023-04-27T02:03:00.850Z,14.40
2023-04-27T02:05:27.396Z,14.40
2023-04-27T02:07:53.873Z,14.40
2023-04-27T02:10:20.338Z,14.40
2023-04-27T02:12:46.818Z,14.40
2023-04-27T02:15:13.316Z,14.40
2023-04-27T02:17:39.862Z,14.30
2023-04-27T02:20:06.394Z,14.30
2023-04-27T02:22:32.881Z,14.30
2023-04-27T02:25:02.004Z,14.30
2023-04-27T02:27:28.550Z,14.40
2023-04-27T02:29:55.447Z,14.40
2023-04-27T02:32:22.362Z,14.30
2023-04-27T02:34:48.834Z,14.30
2023-04-27T02:37:15.317Z,14.30
2023-04-27T02:39:41.833Z,14.30
2023-04-27T02:42:08.315Z,14.30
2023-04-27T02:44:34.857Z,14.20
2023-04-27T02:47:01.394Z,14.30
2023-04-27T02:49:27.921Z,14.20
2023-04-27T02:51:54.409Z,14.20
2023-04-27T02:54:20.897Z,14.20
2023-04-27T02:56:47.389Z,14.30
2023-04-27T02:59:14.162Z,14.30
2023-04-27T03:01:40.813Z,14.30
2023-04-27T03:04:07.527Z,14.30
2023-04-27T03:06:34.130Z,14.30
2023-04-27T03:09:00.630Z,14.30
2023-04-27T03:11:27.154Z,14.20
2023-04-27T03:13:53.658Z,14.20
2023-04-27T03:16:20.156Z,14.40
2023-04-27T03:18:46.642Z,14.20
2023-04-27T03:21:13.125Z,14.20
2023-04-27T03:23:39.611Z,14.20
2023-04-27T03:26:06.081Z,14.30
2023-04-27T03:28:32.602Z,14.30
2023-04-27T03:30:59.100Z,14.30
2023-04-27T03:33:25.866Z,14.20
2023-04-27T03:35:55.913Z,14.20
2023-04-27T03:38:22.393Z,14.20
2023-04-27T03:40:48.864Z,14.30
2023-04-27T03:43:15.339Z,14.20
2023-04-27T03:45:41.908Z,14.30
2023-04-27T03:48:08.466Z,14.30
2023-04-27T03:50:35.024Z,14.30
2023-04-27T03:53:01.508Z,14.20
2023-04-27T03:55:27.990Z,14.20
2023-04-27T03:57:54.467Z,14.20
2023-04-27T04:00:20.965Z,14.10
2023-04-27T04:02:47.620Z,14.20
2023-04-27T04:05:14.387Z,14.20
2023-04-27T04:07:41.029Z,14.20
2023-04-27T04:10:07.537Z,14.10
2023-04-27T04:12:33.991Z,14.20
2023-04-27T04:15:00.486Z,14.10
2023-04-27T04:17:27.000Z,14.30
2023-04-27T04:19:53.556Z,14.20
2023-04-27T04:22:20.028Z,14.20
2023-04-27T04:24:46.515Z,14.20
2023-04-27T04:27:13.037Z,14.30
2023-04-27T04:29:39.523Z,14.20
2023-04-27T04:32:05.995Z,14.20
2023-04-27T04:34:37.957Z,14.20
2023-04-27T04:37:08.155Z,14.30
2023-04-27T04:39:34.681Z,14.30
2023-04-27T04:42:01.211Z,14.40
2023-04-27T04:44:31.974Z,14.50
2023-04-27T04:46:58.545Z,14.60
2023-04-27T04:49:25.064Z,14.60
2023-04-27T04:51:51.770Z,14.70
2023-04-27T04:54:18.360Z,14.60
2023-04-27T04:56:44.821Z,14.70
2023-04-27T04:59:11.407Z,14.70
2023-04-27T05:01:38.051Z,14.60
2023-04-27T05:04:04.698Z,14.50
2023-04-27T05:06:31.237Z,14.60
2023-04-27T05:08:57.721Z,14.60
2023-04-27T05:11:24.198Z,14.60
2023-04-27T05:13:50.649Z,14.60
2023-04-27T05:16:17.174Z,14.60
2023-04-27T05:18:43.711Z,14.60
2023-04-27T05:21:10.193Z,14.70
2023-04-27T05:23:36.677Z,14.60
2023-04-27T05:26:03.171Z,14.60
2023-04-27T05:28:29.626Z,14.50
2023-04-27T05:30:56.107Z,14.50
2023-04-27T05:33:22.586Z,14.60
2023-04-27T05:35:49.082Z,14.50
2023-04-27T05:38:15.573Z,14.60
2023-04-27T05:40:42.106Z,14.60
2023-04-27T05:43:08.634Z,14.50
2023-04-27T05:45:35.172Z,14.40
2023-04-27T05:48:01.841Z,14.40
2023-04-27T05:50:28.421Z,14.40
2023-04-27T05:52:54.906Z,14.40
2023-04-27T05:55:21.400Z,14.40
2023-04-27T05:57:54.514Z,14.50
2023-04-27T06:00:31.070Z,14.50
2023-04-27T06:02:57.734Z,14.40
2023-04-27T06:05:24.451Z,14.40
2023-04-27T06:07:50.949Z,14.40
2023-04-27T06:10:17.444Z,14.20
2023-04-27T06:12:45.838Z,14.30
2023-04-27T06:15:12.917Z,14.20
2023-04-27T06:17:39.421Z,14.20
2023-04-27T06:20:05.930Z,14.20
2023-04-27T06:22:38.062Z,14.20
2023-04-27T06:25:04.518Z,14.20
2023-04-27T06:27:31.011Z,14.20
2023-04-27T06:29:57.496Z,14.30
2023-04-27T06:32:26.088Z,14.30
2023-04-27T06:34:52.572Z,14.30
2023-04-27T06:37:19.053Z,14.20
2023-04-27T06:39:46.760Z,14.20
2023-04-27T06:42:13.342Z,14.30
2023-04-27T06:44:39.823Z,14.30
2023-04-27T06:47:08.072Z,14.30
2023-04-27T06:49:34.538Z,14.30
2023-04-27T06:52:01.045Z,14.30
2023-04-27T06:54:27.553Z,14.20
2023-04-27T06:56:54.052Z,14.10
2023-04-27T06:59:20.540Z,14.10
2023-04-27T07:01:47.130Z,14.20
2023-04-27T07:04:13.735Z,14.10
2023-04-27T07:06:40.369Z,14.10
2023-04-27T07:09:16.302Z,14.10
2023-04-27T07:11:52.876Z,14.20
2023-04-27T07:14:20.047Z,14.20
2023-04-27T07:16:46.536Z,14.30
2023-04-27T07:19:13.201Z,14.30
2023-04-27T07:21:39.839Z,14.30
2023-04-27T07:24:06.325Z,14.30
2023-04-27T07:26:32.813Z,14.40
2023-04-27T07:28:59.273Z,14.20
2023-04-27T07:31:25.796Z,14.20
2023-04-27T07:33:52.307Z,14.10
2023-04-27T07:36:18.813Z,14.20
2023-04-27T07:38:45.298Z,14.10
2023-04-27T07:41:11.800Z,14.10
2023-04-27T07:43:38.269Z,14.10
2023-04-27T07:46:04.789Z,14.10
2023-04-27T07:48:31.296Z,14.10
2023-04-27T07:50:57.765Z,14.20
2023-04-27T07:53:24.230Z,14.30
2023-04-27T07:55:50.721Z,14.20
2023-04-27T07:58:17.209Z,14.20
2023-04-27T08:00:43.748Z,14.00
2023-04-27T08:03:10.474Z,14.10
2023-04-27T08:05:37.400Z,14.20
2023-04-27T08:08:04.589Z,14.30
2023-04-27T08:10:31.135Z,14.10
2023-04-27T08:12:57.608Z,14.10
2023-04-27T08:15:26.096Z,14.10
2023-04-27T08:17:56.167Z,14.20
2023-04-27T08:20:22.670Z,14.40
2023-04-27T08:22:49.148Z,14.30
2023-04-27T08:25:15.626Z,14.30
2023-04-27T08:27:42.110Z,14.30
2023-04-27T08:30:08.650Z,14.40
2023-04-27T08:32:35.182Z,14.40
2023-04-27T08:35:01.767Z,14.30
2023-04-27T08:37:28.267Z,14.40
2023-04-27T08:39:54.746Z,14.40
2023-04-27T08:42:21.225Z,14.30
2023-04-27T08:44:47.717Z,14.30
2023-04-27T08:47:14.202Z,14.30
2023-04-27T08:49:40.678Z,14.40
2023-04-27T08:52:07.172Z,14.50
2023-04-27T08:54:33.659Z,14.50
2023-04-27T08:57:00.137Z,14.50
2023-04-27T08:59:26.623Z,14.50
2023-04-27T09:01:53.276Z,14.50
2023-04-27T09:04:20.081Z,14.50
2023-04-27T09:06:46.841Z,14.40
2023-04-27T09:09:13.549Z,14.50
2023-04-27T09:11:40.139Z,14.50
2023-04-27T09:14:06.625Z,14.50
2023-04-27T09:16:33.140Z,14.60
2023-04-27T09:18:59.661Z,14.60
2023-04-27T09:21:26.141Z,14.60
2023-04-27T09:23:52.628Z,14.60
2023-04-27T09:26:19.110Z,14.60
2023-04-27T09:28:45.592Z,14.70
2023-04-27T09:31:12.111Z,14.60
2023-04-27T09:33:38.664Z,14.70
2023-04-27T09:36:05.156Z,14.70
2023-04-27T09:38:31.654Z,14.70
2023-04-27T09:40:58.296Z,14.70
2023-04-27T09:43:24.773Z,14.80
2023-04-27T09:45:51.250Z,14.70
2023-04-27T09:48:20.205Z,14.70
2023-04-27T09:50:46.656Z,14.80
2023-04-27T09:53:13.128Z,14.80
2023-04-27T09:55:39.596Z,14.90
2023-04-27T09:58:06.059Z,14.80
2023-04-27T10:00:32.545Z,14.80
2023-04-27T10:02:59.142Z,14.80
2023-04-27T10:05:25.755Z,14.80
2023-04-27T10:07:52.353Z,14.80
2023-04-27T10:10:22.580Z,14.80
2023-04-27T10:12:49.054Z,14.80
2023-04-27T10:15:15.533Z,14.70
2023-04-27T10:17:42.014Z,14.90
2023-04-27T10:20:08.540Z,14.80
2023-04-27T10:22:36.040Z,14.70
2023-04-27T10:25:02.620Z,14.90
2023-04-27T10:27:29.123Z,14.80
2023-04-27T10:29:55.611Z,14.80
2023-04-27T10:32:22.134Z,14.90
2023-04-27T10:34:48.684Z,14.90
2023-04-27T10:37:15.176Z,14.80
2023-04-27T10:39:49.431Z,14.90
2023-04-27T10:42:16.632Z,14.80
2023-04-27T10:44:43.112Z,14.90
2023-04-27T10:47:09.598Z,14.80
2023-04-27T10:49:36.088Z,14.80
2023-04-27T10:52:02.569Z,14.80
2023-04-27T10:54:29.054Z,14.80
2023-04-27T10:56:55.532Z,14.90
2023-04-27T10:59:26.311Z,14.90
2023-04-27T11:01:52.811Z,14.90
2023-04-27T11:04:19.357Z,14.90
2023-04-27T11:06:45.969Z,14.90
2023-04-27T11:09:12.519Z,15.00
2023-04-27T11:11:39.050Z,14.80
2023-04-27T11:14:05.570Z,14.90
2023-04-27T11:16:32.844Z,14.90
2023-04-27T11:18:59.803Z,14.90
2023-04-27T11:21:26.338Z,14.90
2023-04-27T11:23:52.848Z,14.90
2023-04-27T11:26:19.310Z,14.90
2023-04-27T11:28:45.844Z,14.90
2023-04-27T11:31:12.353Z,15.00
2023-04-27T11:33:38.963Z,14.90
2023-04-27T11:36:05.424Z,14.90
2023-04-27T11:38:31.931Z,14.90
2023-04-27T11:40:58.418Z,14.90
2023-04-27T11:43:24.918Z,15.00
2023-04-27T11:45:51.389Z,15.00
2023-04-27T11:48:19.743Z,15.00
2023-04-27T11:50:46.210Z,14.90
2023-04-27T11:53:12.696Z,15.00
2023-04-27T11:55:39.167Z,15.00
2023-04-27T11:58:05.666Z,15.00
2023-04-27T12:00:32.178Z,15.00
2023-04-27T12:02:58.974Z,14.90
2023-04-27T12:05:25.693Z,15.00
2023-04-27T12:07:52.218Z,15.00
2023-04-27T12:10:18.714Z,15.10
2023-04-27T12:12:45.278Z,15.00
2023-04-27T12:15:11.761Z,15.10
2023-04-27T12:17:38.309Z,15.00
2023-04-27T12:20:04.781Z,15.00
2023-04-27T12:22:31.338Z,15.00
2023-04-27T12:24:57.821Z,15.00
2023-04-27T12:27:24.289Z,15.00
2023-04-27T12:29:50.766Z,15.10
2023-04-27T12:32:17.244Z,15.10
2023-04-27T12:34:44.351Z,15.10
2023-04-27T12:37:10.829Z,15.10
2023-04-27T12:39:37.325Z,15.10
2023-04-27T12:42:03.803Z,15.20
2023-04-27T12:44:30.283Z,15.10
2023-04-27T12:46:56.772Z,15.10
2023-04-27T12:49:23.285Z,15.20
2023-04-27T12:51:49.753Z,15.10
2023-04-27T12:54:16.594Z,15.10
2023-04-27T12:56:43.366Z,15.20
2023-04-27T12:59:09.865Z,15.20
2023-04-27T13:01:36.413Z,15.20
2023-04-27T13:04:03.379Z,15.20
2023-04-27T13:06:30.084Z,15.30
2023-04-27T13:08:56.593Z,15.30
2023-04-27T13:11:23.102Z,15.30
2023-04-27T13:13:49.565Z,15.30
2023-04-27T13:16:16.089Z,15.20
2023-04-27T13:18:42.603Z,15.30
2023-04-27T13:21:09.097Z,15.30
2023-04-27T13:23:35.617Z,15.30
2023-04-27T13:26:02.148Z,15.30
2023-04-27T13:28:28.656Z,15.30
2023-04-27T13:30:55.149Z,15.30
2023-04-27T13:33:23.523Z,15.30
2023-04-27T13:35:50.388Z,15.30
2023-04-27T13:38:16.853Z,15.30
2023-04-27T13:40:43.341Z,15.30
2023-04-27T13:43:09.858Z,15.40
2023-04-27T13:45:36.375Z,15.40
2023-04-27T13:48:02.963Z,15.40
2023-04-27T13:50:29.542Z,15.40
2023-04-27T13:52:56.022Z,15.40
2023-04-27T13:55:22.537Z,15.40
2023-04-27T13:57:49.014Z,15.40
2023-04-27T14:00:15.528Z,15.50
2023-04-27T14:02:42.092Z,15.40
2023-04-27T14:05:08.646Z,15.40
2023-04-27T14:07:35.132Z,15.50
2023-04-27T14:10:01.628Z,15.50
2023-04-27T14:12:28.104Z,15.50
2023-04-27T14:14:55.438Z,15.50
2023-04-27T14:17:22.707Z,15.50
2023-04-27T14:19:49.190Z,15.40
2023-04-27T14:22:15.657Z,15.50
2023-04-27T14:24:42.136Z,15.60
2023-04-27T14:27:08.612Z,15.50
2023-04-27T14:29:35.076Z,15.60
2023-04-27T14:32:01.602Z,15.60
2023-04-27T14:34:28.148Z,15.40
2023-04-27T14:36:54.631Z,15.60
2023-04-27T14:39:21.098Z,15.60
2023-04-27T14:41:47.604Z,15.60
2023-04-27T14:44:14.080Z,15.60
2023-04-27T14:46:40.600Z,15.70
2023-04-27T14:49:07.195Z,15.70
2023-04-27T14:51:33.698Z,15.70
2023-04-27T14:54:00.174Z,15.70
2023-04-27T14:56:26.729Z,15.70
2023-04-27T14:58:53.196Z,15.70
2023-04-27T15:01:19.748Z,15.70
2023-04-27T15:03:46.424Z,15.70
2023-04-27T15:06:13.126Z,15.70
2023-04-27T15:08:39.599Z,15.70
2023-04-27T15:11:06.088Z,15.80
2023-04-27T15:13:32.570Z,15.70
2023-04-27T15:15:59.113Z,15.80
2023-04-27T15:18:26.520Z,15.80
2023-04-27T15:20:53.013Z,15.80
2023-04-27T15:23:19.501Z,15.80
2023-04-27T15:25:45.981Z,15.80
2023-04-27T15:28:14.507Z,15.80
2023-04-27T15:30:40.982Z,15.80
2023-04-27T15:33:10.122Z,15.80
2023-04-27T15:35:36.784Z,15.80
2023-04-27T15:38:03.280Z,15.80
2023-04-27T15:40:32.474Z,15.80
2023-04-27T15:42:58.969Z,15.80
2023-04-27T15:45:25.459Z,15.80
2023-04-27T15:47:52.005Z,15.70
2023-04-27T15:50:18.498Z,15.80
2023-04-27T15:52:44.991Z,15.80
2023-04-27T15:55:11.471Z,15.80
2023-04-27T15:57:37.960Z,15.80
2023-04-27T16:00:04.443Z,15.80
2023-04-27T16:02:31.069Z,15.80
2023-04-27T16:04:57.597Z,15.70
2023-04-27T16:07:24.088Z,15.70
2023-04-27T16:09:50.583Z,15.80
2023-04-27T16:12:17.087Z,15.80
2023-04-27T16:14:43.555Z,15.80
2023-04-27T16:17:14.553Z,15.80
2023-04-27T16:19:41.021Z,15.80
2023-04-27T16:22:07.510Z,15.80
2023-04-27T16:24:33.992Z,15.80
2023-04-27T16:27:00.471Z,15.70
2023-04-27T16:29:26.975Z,15.80
2023-04-27T16:31:53.541Z,15.80
2023-04-27T16:34:20.085Z,15.80
2023-04-27T16:36:46.581Z,15.80
2023-04-27T16:39:14.673Z,15.80
2023-04-27T16:41:41.324Z,15.80
2023-04-27T16:44:07.811Z,15.80
2023-04-27T16:46:34.372Z,15.80
2023-04-27T16:49:00.897Z,15.80
2023-04-27T16:51:27.379Z,15.80
2023-04-27T16:53:53.867Z,15.80
2023-04-27T16:56:20.333Z,15.80
2023-04-27T16:58:46.814Z,15.80
2023-04-27T17:01:13.332Z,15.70
2023-04-27T17:03:39.929Z,15.80
2023-04-27T17:06:06.480Z,15.80
2023-04-27T17:08:32.951Z,15.80
2023-04-27T17:10:59.432Z,15.80
2023-04-27T17:13:25.924Z,15.80
2023-04-27T17:15:52.460Z,15.80
2023-04-27T17:18:19.002Z,15.80
2023-04-27T17:20:45.484Z,15.80
2023-04-27T17:23:11.960Z,15.80
2023-04-27T17:25:38.423Z,15.70
2023-04-27T17:28:04.893Z,15.70
2023-04-27T17:30:31.389Z,15.70
2023-04-27T17:32:57.964Z,15.80
2023-04-27T17:35:24.518Z,15.80
2023-04-27T17:37:51.003Z,15.80
2023-04-27T17:40:17.480Z,15.80
2023-04-27T17:42:43.974Z,15.80
2023-04-27T17:45:10.432Z,15.80
2023-04-27T17:47:36.913Z,15.70
2023-04-27T17:50:03.413Z,15.70
2023-04-27T17:52:29.903Z,15.70
2023-04-27T17:54:56.651Z,15.70
2023-04-27T17:57:26.644Z,15.80
2023-04-27T17:59:53.142Z,15.80
2023-04-27T18:02:19.715Z,15.80
2023-04-27T18:04:46.274Z,15.70
2023-04-27T18:07:12.749Z,15.70
2023-04-27T18:09:39.236Z,15.70
2023-04-27T18:12:05.716Z,15.70
2023-04-27T18:14:32.219Z,15.70
2023-04-27T18:16:58.848Z,15.70
2023-04-27T18:19:25.385Z,15.70
2023-04-27T18:21:51.865Z,15.70
2023-04-27T18:24:18.349Z,15.70
2023-04-27T18:26:44.836Z,15.70
2023-04-27T18:29:11.363Z,15.70
2023-04-27T18:31:37.900Z,15.70
2023-04-27T18:34:04.425Z,15.70
2023-04-27T18:36:30.900Z,15.70
2023-04-27T18:38:57.406Z,15.70
2023-04-27T18:41:23.890Z,15.70
2023-04-27T18:43:50.403Z,15.70
2023-04-27T18:46:16.905Z,15.70
2023-04-27T18:48:43.705Z,15.70
2023-04-27T18:51:10.199Z,15.70
2023-04-27T18:53:36.704Z,15.70
2023-04-27T18:56:03.219Z,15.70
2023-04-27T18:58:29.709Z,15.70
2023-04-27T19:00:56.199Z,15.70
2023-04-27T19:03:22.779Z,15.70
2023-04-27T19:05:49.358Z,15.70
2023-04-27T19:08:15.848Z,15.60
2023-04-27T19:10:42.355Z,15.70
2023-04-27T19:13:08.847Z,15.70
2023-04-27T19:15:35.354Z,15.60
2023-04-27T19:18:07.006Z,15.70
2023-04-27T19:20:37.226Z,15.70
2023-04-27T19:23:03.781Z,15.60
2023-04-27T19:25:30.295Z,15.60
2023-04-27T19:27:56.801Z,15.60
2023-04-27T19:30:23.276Z,15.60
2023-04-27T19:32:49.789Z,15.60
2023-04-27T19:35:16.316Z,15.60
2023-04-27T19:37:42.800Z,15.60
2023-04-27T19:40:09.281Z,15.60
2023-04-27T19:42:35.762Z,15.60
2023-04-27T19:45:02.235Z,15.60
2023-04-27T19:47:28.729Z,15.60
2023-04-27T19:49:55.265Z,15.60
2023-04-27T19:52:21.733Z,15.60
2023-04-27T19:54:48.221Z,15.60
2023-04-27T19:57:14.694Z,15.60
2023-04-27T19:59:41.244Z,15.60
2023-04-27T20:02:07.938Z,15.60
2023-04-27T20:04:34.759Z,15.60
2023-04-27T20:07:02.835Z,15.60
2023-04-27T20:09:30.286Z,15.60
2023-04-27T20:11:56.779Z,15.60
2023-04-27T20:14:23.268Z,15.60
2023-04-27T20:16:49.912Z,15.60
2023-04-27T20:19:20.950Z,15.60
2023-04-27T20:21:47.427Z,15.60
2023-04-27T20:24:14.183Z,15.60
2023-04-27T20:26:40.941Z,15.60
2023-04-27T20:29:07.414Z,15.60
2023-04-27T20:31:33.942Z,15.60
2023-04-27T20:34:00.457Z,15.40
2023-04-27T20:36:26.945Z,15.60
2023-04-27T20:38:53.452Z,15.50
2023-04-27T20:41:19.921Z,15.60
2023-04-27T20:43:46.407Z,15.50
2023-04-27T20:46:13.073Z,15.50
2023-04-27T20:48:39.675Z,15.50
2023-04-27T20:51:06.155Z,15.50
2023-04-27T20:53:32.666Z,15.50
2023-04-27T20:55:59.166Z,15.50
2023-04-27T20:58:25.670Z,15.50
2023-04-27T21:00:52.251Z,15.50
2023-04-27T21:03:18.863Z,15.50
2023-04-27T21:05:45.450Z,15.50
2023-04-27T21:08:11.938Z,15.50
2023-04-27T21:10:38.468Z,15.50
2023-04-27T21:13:04.993Z,15.50
2023-04-27T21:15:31.482Z,15.50
2023-04-27T21:17:57.983Z,15.50
2023-04-27T21:20:24.504Z,15.50
2023-04-27T21:22:50.991Z,15.40
2023-04-27T21:25:17.493Z,15.50
2023-04-27T21:27:43.962Z,15.50
2023-04-27T21:30:10.443Z,15.50
2023-04-27T21:32:36.960Z,15.50
2023-04-27T21:35:03.492Z,15.50
2023-04-27T21:37:29.988Z,15.50
2023-04-27T21:39:56.473Z,15.50
2023-04-27T21:42:22.957Z,15.50
2023-04-27T21:44:49.416Z,15.50
2023-04-27T21:47:20.849Z,15.50
2023-04-27T21:49:47.332Z,15.50
2023-04-27T21:52:13.846Z,15.50
2023-04-27T21:54:40.350Z,15.50
2023-04-27T21:57:06.839Z,15.50
2023-04-27T21:59:33.328Z,15.50
2023-04-27T22:01:59.907Z,15.50
2023-04-27T22:04:26.581Z,15.40
2023-04-27T22:06:53.161Z,15.50
2023-04-27T22:09:19.671Z,15.50
2023-04-27T22:11:46.181Z,15.50
2023-04-27T22:14:12.786Z,15.50
2023-04-27T22:16:39.548Z,15.50
2023-04-27T22:19:06.088Z,15.50
2023-04-27T22:21:32.580Z,15.50
2023-04-27T22:23:59.056Z,15.40
2023-04-27T22:26:25.518Z,15.50
2023-04-27T22:28:52.017Z,15.40
2023-04-27T22:31:18.526Z,15.40
2023-04-27T22:33:45.031Z,15.40
2023-04-27T22:36:11.510Z,15.40
2023-04-27T22:38:37.973Z,15.50
2023-04-27T22:41:04.452Z,15.50
2023-04-27T22:43:30.928Z,15.50
2023-04-27T22:45:57.390Z,15.40
2023-04-27T22:48:23.848Z,15.50
2023-04-27T22:50:50.306Z,15.50
2023-04-27T22:53:16.756Z,15.50
2023-04-27T22:55:43.206Z,15.40
2023-04-27T22:58:09.689Z,15.40
2023-04-27T23:00:36.168Z,15.40
2023-04-27T23:03:02.726Z,15.40
2023-04-27T23:05:29.250Z,15.40
2023-04-27T23:07:55.727Z,15.40
2023-04-27T23:10:22.219Z,15.40
2023-04-27T23:12:48.714Z,15.40
2023-04-27T23:15:15.185Z,15.40
2023-04-27T23:17:41.670Z,15.40
2023-04-27T23:20:11.188Z,15.40
2023-04-27T23:22:43.780Z,15.40
2023-04-27T23:25:10.290Z,15.40
2023-04-27T23:27:36.777Z,15.40
2023-04-27T23:30:03.266Z,15.40
2023-04-27T23:32:29.815Z,15.40
2023-04-27T23:34:56.298Z,15.40
2023-04-27T23:37:22.791Z,15.40
2023-04-27T23:39:49.255Z,15.40
2023-04-27T23:42:15.753Z,15.40
2023-04-27T23:44:42.253Z,15.40
2023-04-27T23:47:08.769Z,15.40
2023-04-27T23:49:35.253Z,15.40
2023-04-27T23:52:01.756Z,15.40
2023-04-27T23:54:28.224Z,15.40
2023-04-27T23:56:54.733Z,15.40
2023-04-27T23:59:21.195Z,15.40
